sensor_id;sensor_type;location;lat;lon;timestamp;P1;durP1;ratioP1;P2;durP2;ratioP2
59978;SDS011;45839;44.882;20.650;2024-03-02T00:01:05;19.10;;;12.45;;
59978;SDS011;45839;44.882;20.650;2024-03-02T00:03:31;20.67;;;13.52;;
59978;SDS011;45839;44.882;20.650;2024-03-02T00:05:58;20.50;;;13.05;;
59978;SDS011;45839;44.882;20.650;2024-03-02T00:08:25;19.15;;;11.95;;
59978;SDS011;45839;44.882;20.650;2024-03-02T00:10:51;18.90;;;11.82;;
59978;SDS011;45839;44.882;20.650;2024-03-02T00:13:19;18.92;;;11.15;;
59978;SDS011;45839;44.882;20.650;2024-03-02T00:15:48;16.70;;;11.23;;
59978;SDS011;45839;44.882;20.650;2024-03-02T00:18:19;17.00;;;10.77;;
59978;SDS011;45839;44.882;20.650;2024-03-02T00:20:45;16.80;;;10.55;;
59978;SDS011;45839;44.882;20.650;2024-03-02T00:23:14;16.98;;;9.95;;
59978;SDS011;45839;44.882;20.650;2024-03-02T00:25:41;17.05;;;10.25;;
59978;SDS011;45839;44.882;20.650;2024-03-02T00:31:04;17.65;;;9.38;;
59978;SDS011;45839;44.882;20.650;2024-03-02T00:35:58;14.45;;;8.60;;
59978;SDS011;45839;44.882;20.650;2024-03-02T00:38:25;12.70;;;8.48;;
59978;SDS011;45839;44.882;20.650;2024-03-02T00:40:51;15.93;;;9.00;;
59978;SDS011;45839;44.882;20.650;2024-03-02T00:45:50;12.85;;;8.40;;
59978;SDS011;45839;44.882;20.650;2024-03-02T00:48:16;11.70;;;7.35;;
59978;SDS011;45839;44.882;20.650;2024-03-02T00:50:42;14.25;;;8.30;;
59978;SDS011;45839;44.882;20.650;2024-03-02T00:53:11;13.18;;;8.00;;
59978;SDS011;45839;44.882;20.650;2024-03-02T00:55:37;12.75;;;7.97;;
59978;SDS011;45839;44.882;20.650;2024-03-02T00:58:04;13.52;;;8.27;;
59978;SDS011;45839;44.882;20.650;2024-03-02T01:00:30;14.60;;;8.63;;
59978;SDS011;45839;44.882;20.650;2024-03-02T01:02:56;13.68;;;7.70;;
59978;SDS011;45839;44.882;20.650;2024-03-02T01:05:23;12.38;;;7.38;;
59978;SDS011;45839;44.882;20.650;2024-03-02T01:07:49;11.73;;;7.43;;
59978;SDS011;45839;44.882;20.650;2024-03-02T01:10:15;12.60;;;7.88;;
59978;SDS011;45839;44.882;20.650;2024-03-02T01:12:41;11.48;;;7.15;;
59978;SDS011;45839;44.882;20.650;2024-03-02T01:15:07;14.07;;;8.18;;
59978;SDS011;45839;44.882;20.650;2024-03-02T01:17:33;13.40;;;7.93;;
59978;SDS011;45839;44.882;20.650;2024-03-02T01:19:59;13.27;;;7.90;;
59978;SDS011;45839;44.882;20.650;2024-03-02T01:22:25;10.75;;;6.93;;
59978;SDS011;45839;44.882;20.650;2024-03-02T01:24:51;11.80;;;7.13;;
59978;SDS011;45839;44.882;20.650;2024-03-02T01:27:18;14.35;;;7.85;;
59978;SDS011;45839;44.882;20.650;2024-03-02T01:29:44;14.15;;;7.25;;
59978;SDS011;45839;44.882;20.650;2024-03-02T01:32:10;13.80;;;7.63;;
59978;SDS011;45839;44.882;20.650;2024-03-02T01:34:36;12.27;;;7.00;;
59978;SDS011;45839;44.882;20.650;2024-03-02T01:37:02;13.65;;;7.18;;
59978;SDS011;45839;44.882;20.650;2024-03-02T01:39:28;13.52;;;7.15;;
59978;SDS011;45839;44.882;20.650;2024-03-02T01:41:55;12.30;;;7.15;;
59978;SDS011;45839;44.882;20.650;2024-03-02T01:44:21;11.88;;;7.75;;
59978;SDS011;45839;44.882;20.650;2024-03-02T01:46:47;14.00;;;7.65;;
59978;SDS011;45839;44.882;20.650;2024-03-02T01:49:13;12.23;;;7.53;;
59978;SDS011;45839;44.882;20.650;2024-03-02T01:51:39;12.43;;;7.15;;
59978;SDS011;45839;44.882;20.650;2024-03-02T01:54:05;12.77;;;7.65;;
59978;SDS011;45839;44.882;20.650;2024-03-02T01:56:31;12.77;;;7.70;;
59978;SDS011;45839;44.882;20.650;2024-03-02T01:58:57;10.70;;;7.07;;
59978;SDS011;45839;44.882;20.650;2024-03-02T02:01:23;11.48;;;7.22;;
59978;SDS011;45839;44.882;20.650;2024-03-02T02:03:49;13.05;;;7.97;;
59978;SDS011;45839;44.882;20.650;2024-03-02T02:06:15;11.52;;;7.25;;
59978;SDS011;45839;44.882;20.650;2024-03-02T02:08:42;12.27;;;7.13;;
59978;SDS011;45839;44.882;20.650;2024-03-02T02:11:08;13.10;;;8.38;;
59978;SDS011;45839;44.882;20.650;2024-03-02T02:13:34;14.02;;;8.50;;
59978;SDS011;45839;44.882;20.650;2024-03-02T02:16:06;13.88;;;8.57;;
59978;SDS011;45839;44.882;20.650;2024-03-02T02:18:33;12.52;;;8.10;;
59978;SDS011;45839;44.882;20.650;2024-03-02T02:20:59;15.10;;;8.00;;
59978;SDS011;45839;44.882;20.650;2024-03-02T02:23:25;13.80;;;8.85;;
59978;SDS011;45839;44.882;20.650;2024-03-02T02:25:51;14.90;;;9.02;;
59978;SDS011;45839;44.882;20.650;2024-03-02T02:28:17;13.40;;;8.18;;
59978;SDS011;45839;44.882;20.650;2024-03-02T02:30:43;12.43;;;8.15;;
59978;SDS011;45839;44.882;20.650;2024-03-02T02:33:09;13.73;;;8.65;;
59978;SDS011;45839;44.882;20.650;2024-03-02T02:35:35;12.52;;;7.95;;
59978;SDS011;45839;44.882;20.650;2024-03-02T02:38:01;14.00;;;8.30;;
59978;SDS011;45839;44.882;20.650;2024-03-02T02:40:28;13.38;;;8.25;;
59978;SDS011;45839;44.882;20.650;2024-03-02T02:42:58;12.40;;;8.43;;
59978;SDS011;45839;44.882;20.650;2024-03-02T02:45:24;12.82;;;8.18;;
59978;SDS011;45839;44.882;20.650;2024-03-02T02:47:50;12.93;;;8.45;;
59978;SDS011;45839;44.882;20.650;2024-03-02T02:50:16;13.55;;;8.13;;
59978;SDS011;45839;44.882;20.650;2024-03-02T02:52:43;13.98;;;8.82;;
59978;SDS011;45839;44.882;20.650;2024-03-02T02:55:09;15.50;;;8.80;;
59978;SDS011;45839;44.882;20.650;2024-03-02T02:57:37;14.05;;;8.57;;
59978;SDS011;45839;44.882;20.650;2024-03-02T03:00:10;12.73;;;8.23;;
59978;SDS011;45839;44.882;20.650;2024-03-02T03:02:43;14.80;;;8.38;;
59978;SDS011;45839;44.882;20.650;2024-03-02T03:05:10;13.48;;;7.90;;
59978;SDS011;45839;44.882;20.650;2024-03-02T03:07:37;15.05;;;8.68;;
59978;SDS011;45839;44.882;20.650;2024-03-02T03:10:04;13.43;;;8.45;;
59978;SDS011;45839;44.882;20.650;2024-03-02T03:12:31;12.10;;;7.75;;
59978;SDS011;45839;44.882;20.650;2024-03-02T03:14:58;13.15;;;8.60;;
59978;SDS011;45839;44.882;20.650;2024-03-02T03:17:24;12.30;;;7.70;;
59978;SDS011;45839;44.882;20.650;2024-03-02T03:19:50;12.95;;;7.68;;
59978;SDS011;45839;44.882;20.650;2024-03-02T03:22:17;12.52;;;7.93;;
59978;SDS011;45839;44.882;20.650;2024-03-02T03:24:43;12.02;;;7.30;;
59978;SDS011;45839;44.882;20.650;2024-03-02T03:27:09;14.35;;;7.80;;
59978;SDS011;45839;44.882;20.650;2024-03-02T03:29:36;11.02;;;7.03;;
59978;SDS011;45839;44.882;20.650;2024-03-02T03:32:03;13.60;;;7.38;;
59978;SDS011;45839;44.882;20.650;2024-03-02T03:34:32;12.27;;;7.38;;
59978;SDS011;45839;44.882;20.650;2024-03-02T03:36:58;10.30;;;6.47;;
59978;SDS011;45839;44.882;20.650;2024-03-02T03:39:24;11.13;;;6.88;;
59978;SDS011;45839;44.882;20.650;2024-03-02T03:41:50;10.25;;;6.20;;
59978;SDS011;45839;44.882;20.650;2024-03-02T03:44:16;10.98;;;6.10;;
59978;SDS011;45839;44.882;20.650;2024-03-02T03:46:42;10.68;;;6.05;;
59978;SDS011;45839;44.882;20.650;2024-03-02T03:49:09;9.20;;;5.75;;
59978;SDS011;45839;44.882;20.650;2024-03-02T03:51:38;9.88;;;5.20;;
59978;SDS011;45839;44.882;20.650;2024-03-02T03:54:04;8.57;;;5.30;;
59978;SDS011;45839;44.882;20.650;2024-03-02T03:56:30;8.93;;;5.22;;
59978;SDS011;45839;44.882;20.650;2024-03-02T03:58:56;9.63;;;5.60;;
59978;SDS011;45839;44.882;20.650;2024-03-02T04:01:22;8.65;;;5.35;;
59978;SDS011;45839;44.882;20.650;2024-03-02T04:03:48;10.65;;;6.18;;
59978;SDS011;45839;44.882;20.650;2024-03-02T04:06:14;8.73;;;4.95;;
59978;SDS011;45839;44.882;20.650;2024-03-02T04:08:42;8.75;;;5.28;;
59978;SDS011;45839;44.882;20.650;2024-03-02T04:11:08;8.60;;;5.35;;
59978;SDS011;45839;44.882;20.650;2024-03-02T04:13:34;9.95;;;5.38;;
59978;SDS011;45839;44.882;20.650;2024-03-02T04:16:00;8.57;;;4.82;;
59978;SDS011;45839;44.882;20.650;2024-03-02T04:18:28;7.97;;;4.60;;
59978;SDS011;45839;44.882;20.650;2024-03-02T04:20:54;9.00;;;4.88;;
59978;SDS011;45839;44.882;20.650;2024-03-02T04:23:20;9.32;;;4.40;;
59978;SDS011;45839;44.882;20.650;2024-03-02T04:25:47;8.80;;;5.28;;
59978;SDS011;45839;44.882;20.650;2024-03-02T04:28:13;8.95;;;5.22;;
59978;SDS011;45839;44.882;20.650;2024-03-02T04:30:39;8.65;;;4.88;;
59978;SDS011;45839;44.882;20.650;2024-03-02T04:33:05;9.43;;;5.10;;
59978;SDS011;45839;44.882;20.650;2024-03-02T04:35:32;8.52;;;4.60;;
59978;SDS011;45839;44.882;20.650;2024-03-02T04:37:58;7.63;;;4.88;;
59978;SDS011;45839;44.882;20.650;2024-03-02T04:40:24;7.93;;;4.85;;
59978;SDS011;45839;44.882;20.650;2024-03-02T04:42:50;8.52;;;4.95;;
59978;SDS011;45839;44.882;20.650;2024-03-02T04:45:16;6.85;;;4.22;;
59978;SDS011;45839;44.882;20.650;2024-03-02T04:47:42;7.90;;;4.75;;
59978;SDS011;45839;44.882;20.650;2024-03-02T04:50:09;8.20;;;4.72;;
59978;SDS011;45839;44.882;20.650;2024-03-02T04:52:35;8.85;;;4.32;;
59978;SDS011;45839;44.882;20.650;2024-03-02T04:55:01;8.18;;;4.55;;
59978;SDS011;45839;44.882;20.650;2024-03-02T04:57:46;10.38;;;4.82;;
59978;SDS011;45839;44.882;20.650;2024-03-02T05:00:12;8.15;;;4.50;;
59978;SDS011;45839;44.882;20.650;2024-03-02T05:02:39;7.90;;;4.45;;
59978;SDS011;45839;44.882;20.650;2024-03-02T05:05:05;7.78;;;4.70;;
59978;SDS011;45839;44.882;20.650;2024-03-02T05:07:31;8.27;;;4.70;;
59978;SDS011;45839;44.882;20.650;2024-03-02T05:09:57;8.30;;;5.00;;
59978;SDS011;45839;44.882;20.650;2024-03-02T05:12:23;8.43;;;4.70;;
59978;SDS011;45839;44.882;20.650;2024-03-02T05:15:08;7.53;;;4.60;;
59978;SDS011;45839;44.882;20.650;2024-03-02T05:17:35;8.93;;;4.57;;
59978;SDS011;45839;44.882;20.650;2024-03-02T05:20:02;8.70;;;4.97;;
59978;SDS011;45839;44.882;20.650;2024-03-02T05:22:28;7.97;;;4.88;;
59978;SDS011;45839;44.882;20.650;2024-03-02T05:24:55;8.98;;;4.60;;
59978;SDS011;45839;44.882;20.650;2024-03-02T05:27:21;7.70;;;4.72;;
59978;SDS011;45839;44.882;20.650;2024-03-02T05:29:47;8.35;;;4.78;;
59978;SDS011;45839;44.882;20.650;2024-03-02T05:32:13;9.10;;;4.32;;
59978;SDS011;45839;44.882;20.650;2024-03-02T05:34:39;9.07;;;4.55;;
59978;SDS011;45839;44.882;20.650;2024-03-02T05:37:06;7.32;;;4.15;;
59978;SDS011;45839;44.882;20.650;2024-03-02T05:39:32;7.43;;;4.18;;
59978;SDS011;45839;44.882;20.650;2024-03-02T05:41:58;8.45;;;4.82;;
59978;SDS011;45839;44.882;20.650;2024-03-02T05:44:24;8.15;;;4.50;;
59978;SDS011;45839;44.882;20.650;2024-03-02T05:46:50;6.30;;;3.90;;
59978;SDS011;45839;44.882;20.650;2024-03-02T05:49:16;7.57;;;3.97;;
59978;SDS011;45839;44.882;20.650;2024-03-02T05:51:42;6.82;;;4.07;;
59978;SDS011;45839;44.882;20.650;2024-03-02T05:54:08;8.25;;;4.47;;
59978;SDS011;45839;44.882;20.650;2024-03-02T05:56:35;7.10;;;4.13;;
59978;SDS011;45839;44.882;20.650;2024-03-02T05:59:01;7.28;;;3.97;;
59978;SDS011;45839;44.882;20.650;2024-03-02T06:01:45;6.90;;;3.97;;
59978;SDS011;45839;44.882;20.650;2024-03-02T06:04:17;7.40;;;4.25;;
59978;SDS011;45839;44.882;20.650;2024-03-02T06:06:43;7.20;;;4.25;;
59978;SDS011;45839;44.882;20.650;2024-03-02T06:09:09;8.00;;;4.20;;
59978;SDS011;45839;44.882;20.650;2024-03-02T06:11:39;7.60;;;3.78;;
59978;SDS011;45839;44.882;20.650;2024-03-02T06:14:05;7.65;;;4.10;;
59978;SDS011;45839;44.882;20.650;2024-03-02T06:16:32;7.10;;;3.92;;
59978;SDS011;45839;44.882;20.650;2024-03-02T06:18:58;7.30;;;4.40;;
59978;SDS011;45839;44.882;20.650;2024-03-02T06:21:25;7.68;;;3.70;;
59978;SDS011;45839;44.882;20.650;2024-03-02T06:23:51;9.25;;;4.68;;
59978;SDS011;45839;44.882;20.650;2024-03-02T06:26:17;6.63;;;3.90;;
59978;SDS011;45839;44.882;20.650;2024-03-02T06:28:43;7.20;;;4.00;;
59978;SDS011;45839;44.882;20.650;2024-03-02T06:31:10;7.65;;;3.70;;
59978;SDS011;45839;44.882;20.650;2024-03-02T06:33:36;7.05;;;3.72;;
59978;SDS011;45839;44.882;20.650;2024-03-02T06:36:02;9.13;;;3.80;;
59978;SDS011;45839;44.882;20.650;2024-03-02T06:38:29;31.88;;;17.92;;
59978;SDS011;45839;44.882;20.650;2024-03-02T06:40:57;9.57;;;5.93;;
59978;SDS011;45839;44.882;20.650;2024-03-02T06:43:23;8.10;;;4.32;;
59978;SDS011;45839;44.882;20.650;2024-03-02T06:45:50;8.63;;;4.55;;
59978;SDS011;45839;44.882;20.650;2024-03-02T06:48:19;9.15;;;4.47;;
59978;SDS011;45839;44.882;20.650;2024-03-02T06:50:46;10.57;;;5.68;;
59978;SDS011;45839;44.882;20.650;2024-03-02T06:53:12;9.30;;;5.22;;
59978;SDS011;45839;44.882;20.650;2024-03-02T06:55:39;9.20;;;5.20;;
59978;SDS011;45839;44.882;20.650;2024-03-02T06:58:05;7.88;;;4.10;;
59978;SDS011;45839;44.882;20.650;2024-03-02T07:00:31;8.00;;;4.50;;
59978;SDS011;45839;44.882;20.650;2024-03-02T07:02:57;8.48;;;4.75;;
59978;SDS011;45839;44.882;20.650;2024-03-02T07:05:23;8.40;;;4.70;;
59978;SDS011;45839;44.882;20.650;2024-03-02T07:07:49;7.78;;;4.45;;
59978;SDS011;45839;44.882;20.650;2024-03-02T07:10:15;7.68;;;4.32;;
59978;SDS011;45839;44.882;20.650;2024-03-02T07:12:41;9.07;;;4.75;;
59978;SDS011;45839;44.882;20.650;2024-03-02T07:15:07;8.55;;;4.72;;
59978;SDS011;45839;44.882;20.650;2024-03-02T07:17:50;7.53;;;4.25;;
59978;SDS011;45839;44.882;20.650;2024-03-02T07:20:16;9.60;;;4.78;;
59978;SDS011;45839;44.882;20.650;2024-03-02T07:22:42;8.48;;;4.80;;
59978;SDS011;45839;44.882;20.650;2024-03-02T07:25:08;7.43;;;4.38;;
59978;SDS011;45839;44.882;20.650;2024-03-02T07:27:34;8.15;;;4.20;;
59978;SDS011;45839;44.882;20.650;2024-03-02T07:30:02;8.20;;;4.50;;
59978;SDS011;45839;44.882;20.650;2024-03-02T07:32:28;7.50;;;4.18;;
59978;SDS011;45839;44.882;20.650;2024-03-02T07:34:54;8.10;;;4.05;;
59978;SDS011;45839;44.882;20.650;2024-03-02T07:37:21;6.97;;;3.95;;
59978;SDS011;45839;44.882;20.650;2024-03-02T07:39:47;7.18;;;3.90;;
59978;SDS011;45839;44.882;20.650;2024-03-02T07:42:13;7.65;;;4.03;;
59978;SDS011;45839;44.882;20.650;2024-03-02T07:44:39;7.63;;;4.38;;
59978;SDS011;45839;44.882;20.650;2024-03-02T07:47:06;7.68;;;4.22;;
59978;SDS011;45839;44.882;20.650;2024-03-02T07:49:32;7.13;;;4.10;;
59978;SDS011;45839;44.882;20.650;2024-03-02T07:51:58;7.53;;;3.63;;
59978;SDS011;45839;44.882;20.650;2024-03-02T07:54:24;6.80;;;4.07;;
59978;SDS011;45839;44.882;20.650;2024-03-02T07:56:50;8.27;;;3.90;;
59978;SDS011;45839;44.882;20.650;2024-03-02T07:59:16;8.35;;;4.15;;
59978;SDS011;45839;44.882;20.650;2024-03-02T08:01:42;7.07;;;3.78;;
59978;SDS011;45839;44.882;20.650;2024-03-02T08:04:08;7.97;;;4.20;;
59978;SDS011;45839;44.882;20.650;2024-03-02T08:06:34;7.53;;;4.00;;
59978;SDS011;45839;44.882;20.650;2024-03-02T08:09:01;9.35;;;4.72;;
59978;SDS011;45839;44.882;20.650;2024-03-02T08:11:29;9.35;;;4.50;;
59978;SDS011;45839;44.882;20.650;2024-03-02T08:13:56;7.82;;;4.32;;
59978;SDS011;45839;44.882;20.650;2024-03-02T08:16:22;12.43;;;5.00;;
59978;SDS011;45839;44.882;20.650;2024-03-02T08:18:50;7.72;;;4.20;;
59978;SDS011;45839;44.882;20.650;2024-03-02T08:21:16;8.73;;;4.47;;
59978;SDS011;45839;44.882;20.650;2024-03-02T08:23:43;9.05;;;4.60;;
59978;SDS011;45839;44.882;20.650;2024-03-02T08:26:09;8.18;;;4.28;;
59978;SDS011;45839;44.882;20.650;2024-03-02T08:28:35;7.85;;;4.18;;
59978;SDS011;45839;44.882;20.650;2024-03-02T08:31:06;8.85;;;4.43;;
59978;SDS011;45839;44.882;20.650;2024-03-02T08:33:32;9.18;;;4.50;;
59978;SDS011;45839;44.882;20.650;2024-03-02T08:35:59;7.45;;;3.95;;
59978;SDS011;45839;44.882;20.650;2024-03-02T08:38:25;8.45;;;4.43;;
59978;SDS011;45839;44.882;20.650;2024-03-02T08:40:51;8.65;;;4.35;;
59978;SDS011;45839;44.882;20.650;2024-03-02T08:43:18;8.05;;;4.30;;
59978;SDS011;45839;44.882;20.650;2024-03-02T08:45:44;7.10;;;3.80;;
59978;SDS011;45839;44.882;20.650;2024-03-02T08:48:12;8.25;;;4.25;;
59978;SDS011;45839;44.882;20.650;2024-03-02T08:50:38;7.63;;;4.53;;
59978;SDS011;45839;44.882;20.650;2024-03-02T08:53:04;8.63;;;4.55;;
59978;SDS011;45839;44.882;20.650;2024-03-02T08:55:30;8.05;;;4.15;;
59978;SDS011;45839;44.882;20.650;2024-03-02T08:57:57;9.30;;;4.05;;
59978;SDS011;45839;44.882;20.650;2024-03-02T09:00:23;10.63;;;5.43;;
59978;SDS011;45839;44.882;20.650;2024-03-02T09:02:49;8.32;;;4.03;;
59978;SDS011;45839;44.882;20.650;2024-03-02T09:05:17;9.02;;;4.55;;
59978;SDS011;45839;44.882;20.650;2024-03-02T09:07:43;10.98;;;5.05;;
59978;SDS011;45839;44.882;20.650;2024-03-02T09:10:09;9.15;;;4.40;;
59978;SDS011;45839;44.882;20.650;2024-03-02T09:12:35;11.07;;;5.10;;
59978;SDS011;45839;44.882;20.650;2024-03-02T09:15:02;43.00;;;23.02;;
59978;SDS011;45839;44.882;20.650;2024-03-02T09:17:28;53.38;;;33.28;;
59978;SDS011;45839;44.882;20.650;2024-03-02T09:19:55;38.08;;;21.17;;
59978;SDS011;45839;44.882;20.650;2024-03-02T09:22:21;32.50;;;17.10;;
59978;SDS011;45839;44.882;20.650;2024-03-02T09:24:48;21.17;;;10.82;;
59978;SDS011;45839;44.882;20.650;2024-03-02T09:27:14;22.60;;;12.38;;
59978;SDS011;45839;44.882;20.650;2024-03-02T09:29:40;12.55;;;6.00;;
59978;SDS011;45839;44.882;20.650;2024-03-02T09:32:07;17.15;;;9.07;;
59978;SDS011;45839;44.882;20.650;2024-03-02T09:34:33;17.35;;;10.27;;
59978;SDS011;45839;44.882;20.650;2024-03-02T09:36:59;22.25;;;14.52;;
59978;SDS011;45839;44.882;20.650;2024-03-02T09:39:25;37.33;;;23.58;;
59978;SDS011;45839;44.882;20.650;2024-03-02T09:41:51;81.70;;;50.45;;
59978;SDS011;45839;44.882;20.650;2024-03-02T09:44:17;99.32;;;64.10;;
59978;SDS011;45839;44.882;20.650;2024-03-02T09:46:44;82.65;;;56.67;;
59978;SDS011;45839;44.882;20.650;2024-03-02T09:49:14;32.75;;;22.05;;
59978;SDS011;45839;44.882;20.650;2024-03-02T09:51:40;72.65;;;49.17;;
59978;SDS011;45839;44.882;20.650;2024-03-02T09:54:11;53.88;;;33.75;;
59978;SDS011;45839;44.882;20.650;2024-03-02T09:56:38;118.30;;;66.55;;
59978;SDS011;45839;44.882;20.650;2024-03-02T09:59:04;93.97;;;58.92;;
59978;SDS011;45839;44.882;20.650;2024-03-02T10:01:30;69.10;;;45.15;;
59978;SDS011;45839;44.882;20.650;2024-03-02T10:04:00;45.45;;;29.10;;
59978;SDS011;45839;44.882;20.650;2024-03-02T10:06:27;23.15;;;14.63;;
59978;SDS011;45839;44.882;20.650;2024-03-02T10:08:54;8.68;;;4.78;;
59978;SDS011;45839;44.882;20.650;2024-03-02T10:16:35;8.45;;;4.97;;
59978;SDS011;45839;44.882;20.650;2024-03-02T10:21:55;9.20;;;5.13;;
59978;SDS011;45839;44.882;20.650;2024-03-02T10:24:23;13.63;;;6.88;;
59978;SDS011;45839;44.882;20.650;2024-03-02T10:26:50;16.05;;;6.85;;
59978;SDS011;45839;44.882;20.650;2024-03-02T10:29:16;11.63;;;5.90;;
59978;SDS011;45839;44.882;20.650;2024-03-02T10:31:43;26.23;;;16.13;;
59978;SDS011;45839;44.882;20.650;2024-03-02T10:34:11;35.72;;;20.00;;
59978;SDS011;45839;44.882;20.650;2024-03-02T10:36:37;20.17;;;11.45;;
59978;SDS011;45839;44.882;20.650;2024-03-02T10:39:06;18.90;;;10.18;;
59978;SDS011;45839;44.882;20.650;2024-03-02T10:41:33;22.90;;;12.65;;
59978;SDS011;45839;44.882;20.650;2024-03-02T10:43:59;13.48;;;7.60;;
59978;SDS011;45839;44.882;20.650;2024-03-02T10:46:28;24.35;;;12.95;;
59978;SDS011;45839;44.882;20.650;2024-03-02T10:48:55;36.60;;;20.45;;
59978;SDS011;45839;44.882;20.650;2024-03-02T10:51:23;12.77;;;6.82;;
59978;SDS011;45839;44.882;20.650;2024-03-02T10:53:50;8.82;;;5.10;;
59978;SDS011;45839;44.882;20.650;2024-03-02T10:56:18;11.07;;;5.28;;
59978;SDS011;45839;44.882;20.650;2024-03-02T10:58:49;14.65;;;8.60;;
59978;SDS011;45839;44.882;20.650;2024-03-02T11:01:19;17.02;;;9.57;;
59978;SDS011;45839;44.882;20.650;2024-03-02T11:03:46;63.05;;;35.90;;
59978;SDS011;45839;44.882;20.650;2024-03-02T11:06:12;27.73;;;15.68;;
59978;SDS011;45839;44.882;20.650;2024-03-02T11:08:39;32.20;;;18.92;;
59978;SDS011;45839;44.882;20.650;2024-03-02T11:11:06;21.00;;;12.45;;
59978;SDS011;45839;44.882;20.650;2024-03-02T11:13:34;20.15;;;11.38;;
59978;SDS011;45839;44.882;20.650;2024-03-02T11:16:03;26.48;;;14.85;;
59978;SDS011;45839;44.882;20.650;2024-03-02T11:18:31;14.32;;;6.18;;
59978;SDS011;45839;44.882;20.650;2024-03-02T11:20:58;15.57;;;9.10;;
59978;SDS011;45839;44.882;20.650;2024-03-02T11:23:31;21.10;;;12.55;;
59978;SDS011;45839;44.882;20.650;2024-03-02T11:29:06;11.55;;;6.60;;
59978;SDS011;45839;44.882;20.650;2024-03-02T11:34:35;14.10;;;7.47;;
59978;SDS011;45839;44.882;20.650;2024-03-02T11:37:06;21.83;;;12.85;;
59978;SDS011;45839;44.882;20.650;2024-03-02T11:39:42;13.32;;;6.82;;
59978;SDS011;45839;44.882;20.650;2024-03-02T11:42:20;14.82;;;8.57;;
59978;SDS011;45839;44.882;20.650;2024-03-02T11:44:51;19.77;;;12.45;;
59978;SDS011;45839;44.882;20.650;2024-03-02T11:47:24;18.90;;;10.32;;
59978;SDS011;45839;44.882;20.650;2024-03-02T11:49:57;17.33;;;10.07;;
59978;SDS011;45839;44.882;20.650;2024-03-02T11:52:24;15.27;;;9.30;;
59978;SDS011;45839;44.882;20.650;2024-03-02T11:54:51;13.27;;;7.10;;
59978;SDS011;45839;44.882;20.650;2024-03-02T11:57:19;12.48;;;6.82;;
59978;SDS011;45839;44.882;20.650;2024-03-02T11:59:47;14.10;;;7.50;;
59978;SDS011;45839;44.882;20.650;2024-03-02T12:02:15;12.10;;;7.50;;
59978;SDS011;45839;44.882;20.650;2024-03-02T12:04:44;15.13;;;8.82;;
59978;SDS011;45839;44.882;20.650;2024-03-02T12:07:19;9.65;;;5.35;;
59978;SDS011;45839;44.882;20.650;2024-03-02T12:09:49;12.15;;;6.20;;
59978;SDS011;45839;44.882;20.650;2024-03-02T12:12:15;21.08;;;9.65;;
59978;SDS011;45839;44.882;20.650;2024-03-02T12:14:50;14.75;;;7.78;;
59978;SDS011;45839;44.882;20.650;2024-03-02T12:17:16;10.20;;;5.75;;
59978;SDS011;45839;44.882;20.650;2024-03-02T12:19:42;9.70;;;5.25;;
59978;SDS011;45839;44.882;20.650;2024-03-02T12:22:09;15.43;;;8.75;;
59978;SDS011;45839;44.882;20.650;2024-03-02T12:24:35;9.50;;;4.63;;
59978;SDS011;45839;44.882;20.650;2024-03-02T12:27:02;8.60;;;3.95;;
59978;SDS011;45839;44.882;20.650;2024-03-02T12:29:29;11.10;;;5.78;;
59978;SDS011;45839;44.882;20.650;2024-03-02T12:31:56;7.15;;;4.10;;
59978;SDS011;45839;44.882;20.650;2024-03-02T12:34:25;11.20;;;5.85;;
59978;SDS011;45839;44.882;20.650;2024-03-02T12:36:52;9.57;;;5.57;;
59978;SDS011;45839;44.882;20.650;2024-03-02T12:39:18;10.75;;;4.80;;
59978;SDS011;45839;44.882;20.650;2024-03-02T12:41:48;25.25;;;14.07;;
59978;SDS011;45839;44.882;20.650;2024-03-02T12:44:19;10.55;;;4.63;;
59978;SDS011;45839;44.882;20.650;2024-03-02T12:46:45;11.93;;;6.45;;
59978;SDS011;45839;44.882;20.650;2024-03-02T12:49:12;27.55;;;16.60;;
59978;SDS011;45839;44.882;20.650;2024-03-02T12:51:39;15.27;;;8.40;;
59978;SDS011;45839;44.882;20.650;2024-03-02T12:54:27;16.95;;;9.35;;
59978;SDS011;45839;44.882;20.650;2024-03-02T12:56:55;19.08;;;9.95;;
59978;SDS011;45839;44.882;20.650;2024-03-02T12:59:25;19.58;;;12.10;;
59978;SDS011;45839;44.882;20.650;2024-03-02T13:01:57;22.65;;;15.68;;
59978;SDS011;45839;44.882;20.650;2024-03-02T13:04:27;16.83;;;10.35;;
59978;SDS011;45839;44.882;20.650;2024-03-02T13:06:54;36.17;;;23.95;;
59978;SDS011;45839;44.882;20.650;2024-03-02T13:09:36;59.08;;;37.10;;
59978;SDS011;45839;44.882;20.650;2024-03-02T13:12:06;72.20;;;46.92;;
59978;SDS011;45839;44.882;20.650;2024-03-02T13:14:32;55.20;;;35.08;;
59978;SDS011;45839;44.882;20.650;2024-03-02T13:17:00;21.27;;;13.70;;
59978;SDS011;45839;44.882;20.650;2024-03-02T13:19:28;65.75;;;44.53;;
59978;SDS011;45839;44.882;20.650;2024-03-02T13:21:56;46.95;;;32.30;;
59978;SDS011;45839;44.882;20.650;2024-03-02T13:24:22;31.63;;;20.60;;
59978;SDS011;45839;44.882;20.650;2024-03-02T13:26:51;32.47;;;21.20;;
59978;SDS011;45839;44.882;20.650;2024-03-02T13:29:23;31.30;;;21.13;;
59978;SDS011;45839;44.882;20.650;2024-03-02T13:31:49;15.93;;;9.50;;
59978;SDS011;45839;44.882;20.650;2024-03-02T13:34:16;23.27;;;15.10;;
59978;SDS011;45839;44.882;20.650;2024-03-02T13:36:42;16.55;;;10.85;;
59978;SDS011;45839;44.882;20.650;2024-03-02T13:39:08;25.15;;;16.30;;
59978;SDS011;45839;44.882;20.650;2024-03-02T13:41:36;23.48;;;15.38;;
59978;SDS011;45839;44.882;20.650;2024-03-02T13:44:02;17.17;;;10.77;;
59978;SDS011;45839;44.882;20.650;2024-03-02T13:46:28;23.58;;;15.52;;
59978;SDS011;45839;44.882;20.650;2024-03-02T13:48:55;30.02;;;20.05;;
59978;SDS011;45839;44.882;20.650;2024-03-02T13:51:21;13.52;;;8.18;;
59978;SDS011;45839;44.882;20.650;2024-03-02T13:53:47;15.25;;;10.52;;
59978;SDS011;45839;44.882;20.650;2024-03-02T13:56:13;68.22;;;41.75;;
59978;SDS011;45839;44.882;20.650;2024-03-02T13:58:39;71.00;;;44.75;;
59978;SDS011;45839;44.882;20.650;2024-03-02T14:01:06;169.05;;;106.32;;
59978;SDS011;45839;44.882;20.650;2024-03-02T14:03:32;90.78;;;57.22;;
59978;SDS011;45839;44.882;20.650;2024-03-02T14:05:58;160.90;;;99.50;;
59978;SDS011;45839;44.882;20.650;2024-03-02T14:08:24;154.43;;;98.90;;
59978;SDS011;45839;44.882;20.650;2024-03-02T14:10:50;185.75;;;118.40;;
59978;SDS011;45839;44.882;20.650;2024-03-02T14:13:19;162.30;;;100.47;;
59978;SDS011;45839;44.882;20.650;2024-03-02T14:15:49;123.25;;;62.60;;
59978;SDS011;45839;44.882;20.650;2024-03-02T14:18:15;34.08;;;19.45;;
59978;SDS011;45839;44.882;20.650;2024-03-02T14:20:41;18.10;;;11.13;;
59978;SDS011;45839;44.882;20.650;2024-03-02T14:23:07;36.10;;;22.45;;
59978;SDS011;45839;44.882;20.650;2024-03-02T14:25:35;32.90;;;17.90;;
59978;SDS011;45839;44.882;20.650;2024-03-02T14:28:01;19.88;;;12.27;;
59978;SDS011;45839;44.882;20.650;2024-03-02T14:30:27;15.68;;;7.45;;
59978;SDS011;45839;44.882;20.650;2024-03-02T14:32:53;19.63;;;10.93;;
59978;SDS011;45839;44.882;20.650;2024-03-02T14:35:20;22.85;;;12.45;;
59978;SDS011;45839;44.882;20.650;2024-03-02T14:37:47;15.45;;;9.10;;
59978;SDS011;45839;44.882;20.650;2024-03-02T14:40:13;22.77;;;14.05;;
59978;SDS011;45839;44.882;20.650;2024-03-02T14:42:40;17.58;;;9.75;;
59978;SDS011;45839;44.882;20.650;2024-03-02T14:45:07;26.25;;;15.65;;